sensor_id;sensor_type;location;lat;lon;timestamp;P1;durP1;ratioP1;P2;durP2;ratioP2
48651;SDS011;34442;52.362;-1.302;2023-10-31T00:02:15;4.28;;;2.17;;
48651;SDS011;34442;52.362;-1.302;2023-10-31T00:04:41;4.60;;;1.90;;
48651;SDS011;34442;52.362;-1.302;2023-10-31T00:07:06;5.85;;;1.90;;
48651;SDS011;34442;52.362;-1.302;2023-10-31T00:09:31;4.10;;;1.70;;
48651;SDS011;34442;52.362;-1.302;2023-10-31T00:11:57;3.75;;;2.03;;
48651;SDS011;34442;52.362;-1.302;2023-10-31T00:14:23;3.58;;;1.60;;
48651;SDS011;34442;52.362;-1.302;2023-10-31T00:16:49;4.20;;;1.60;;
48651;SDS011;34442;52.362;-1.302;2023-10-31T00:19:14;3.83;;;1.73;;
48651;SDS011;34442;52.362;-1.302;2023-10-31T00:21:39;3.25;;;1.60;;
48651;SDS011;34442;52.362;-1.302;2023-10-31T00:24:07;3.42;;;1.80;;
48651;SDS011;34442;52.362;-1.302;2023-10-31T00:26:32;4.93;;;2.05;;
48651;SDS011;34442;52.362;-1.302;2023-10-31T00:28:58;3.63;;;1.60;;
48651;SDS011;34442;52.362;-1.302;2023-10-31T00:31:23;3.78;;;1.70;;
48651;SDS011;34442;52.362;-1.302;2023-10-31T00:33:51;4.70;;;2.00;;
48651;SDS011;34442;52.362;-1.302;2023-10-31T00:36:16;3.20;;;1.67;;
48651;SDS011;34442;52.362;-1.302;2023-10-31T00:38:42;3.10;;;1.65;;
48651;SDS011;34442;52.362;-1.302;2023-10-31T00:41:07;3.80;;;1.42;;
48651;SDS011;34442;52.362;-1.302;2023-10-31T00:43:32;3.55;;;1.80;;
48651;SDS011;34442;52.362;-1.302;2023-10-31T00:45:58;5.03;;;1.92;;
48651;SDS011;34442;52.362;-1.302;2023-10-31T00:48:23;3.30;;;1.52;;
48651;SDS011;34442;52.362;-1.302;2023-10-31T00:50:48;4.93;;;1.73;;
48651;SDS011;34442;52.362;-1.302;2023-10-31T00:53:14;2.92;;;1.55;;
48651;SDS011;34442;52.362;-1.302;2023-10-31T00:55:40;4.60;;;1.95;;
48651;SDS011;34442;52.362;-1.302;2023-10-31T00:58:05;3.63;;;1.70;;
48651;SDS011;34442;52.362;-1.302;2023-10-31T01:00:31;3.15;;;1.67;;
48651;SDS011;34442;52.362;-1.302;2023-10-31T01:02:56;3.83;;;1.63;;
48651;SDS011;34442;52.362;-1.302;2023-10-31T01:05:22;2.78;;;1.50;;
48651;SDS011;34442;52.362;-1.302;2023-10-31T01:07:47;3.22;;;1.65;;
48651;SDS011;34442;52.362;-1.302;2023-10-31T01:10:12;3.88;;;2.10;;
48651;SDS011;34442;52.362;-1.302;2023-10-31T01:12:38;3.50;;;1.60;;
48651;SDS011;34442;52.362;-1.302;2023-10-31T01:15:03;3.92;;;1.70;;
48651;SDS011;34442;52.362;-1.302;2023-10-31T01:17:29;3.78;;;1.55;;
48651;SDS011;34442;52.362;-1.302;2023-10-31T01:19:57;2.75;;;1.30;;
48651;SDS011;34442;52.362;-1.302;2023-10-31T01:22:23;3.50;;;1.50;;
48651;SDS011;34442;52.362;-1.302;2023-10-31T01:24:48;2.75;;;1.40;;
48651;SDS011;34442;52.362;-1.302;2023-10-31T01:27:13;2.97;;;1.55;;
48651;SDS011;34442;52.362;-1.302;2023-10-31T01:29:39;2.55;;;1.33;;
48651;SDS011;34442;52.362;-1.302;2023-10-31T01:32:04;2.88;;;1.55;;
48651;SDS011;34442;52.362;-1.302;2023-10-31T01:34:30;4.72;;;1.55;;
48651;SDS011;34442;52.362;-1.302;2023-10-31T01:36:55;2.60;;;1.27;;
48651;SDS011;34442;52.362;-1.302;2023-10-31T01:39:21;2.85;;;1.33;;
48651;SDS011;34442;52.362;-1.302;2023-10-31T01:41:46;3.08;;;1.40;;
48651;SDS011;34442;52.362;-1.302;2023-10-31T01:44:11;2.42;;;1.25;;
48651;SDS011;34442;52.362;-1.302;2023-10-31T01:46:37;2.13;;;1.10;;
48651;SDS011;34442;52.362;-1.302;2023-10-31T01:49:02;2.38;;;1.10;;
48651;SDS011;34442;52.362;-1.302;2023-10-31T01:51:28;2.20;;;1.15;;
48651;SDS011;34442;52.362;-1.302;2023-10-31T01:53:53;2.67;;;1.20;;
48651;SDS011;34442;52.362;-1.302;2023-10-31T01:56:19;3.05;;;1.17;;
48651;SDS011;34442;52.362;-1.302;2023-10-31T01:58:45;3.20;;;1.40;;
48651;SDS011;34442;52.362;-1.302;2023-10-31T02:01:12;3.13;;;1.73;;
48651;SDS011;34442;52.362;-1.302;2023-10-31T02:03:37;1.90;;;1.10;;
48651;SDS011;34442;52.362;-1.302;2023-10-31T02:06:03;3.67;;;1.45;;
48651;SDS011;34442;52.362;-1.302;2023-10-31T02:08:29;2.60;;;1.20;;
48651;SDS011;34442;52.362;-1.302;2023-10-31T02:10:54;1.90;;;1.10;;
48651;SDS011;34442;52.362;-1.302;2023-10-31T02:13:20;2.85;;;1.30;;
48651;SDS011;34442;52.362;-1.302;2023-10-31T02:15:45;3.10;;;1.52;;
48651;SDS011;34442;52.362;-1.302;2023-10-31T02:18:11;2.33;;;1.10;;
48651;SDS011;34442;52.362;-1.302;2023-10-31T02:20:37;4.35;;;2.35;;
48651;SDS011;34442;52.362;-1.302;2023-10-31T02:23:03;4.13;;;1.80;;
48651;SDS011;34442;52.362;-1.302;2023-10-31T02:25:28;3.58;;;1.58;;
48651;SDS011;34442;52.362;-1.302;2023-10-31T02:27:54;3.20;;;1.40;;
48651;SDS011;34442;52.362;-1.302;2023-10-31T02:30:19;3.53;;;1.65;;
48651;SDS011;34442;52.362;-1.302;2023-10-31T02:32:45;2.65;;;1.50;;
48651;SDS011;34442;52.362;-1.302;2023-10-31T02:35:10;3.03;;;1.58;;
48651;SDS011;34442;52.362;-1.302;2023-10-31T02:37:36;4.25;;;1.85;;
48651;SDS011;34442;52.362;-1.302;2023-10-31T02:40:02;3.10;;;1.60;;
48651;SDS011;34442;52.362;-1.302;2023-10-31T02:42:27;3.15;;;1.60;;
48651;SDS011;34442;52.362;-1.302;2023-10-31T02:44:53;3.17;;;1.30;;
48651;SDS011;34442;52.362;-1.302;2023-10-31T02:47:18;2.40;;;1.30;;
48651;SDS011;34442;52.362;-1.302;2023-10-31T02:49:44;3.63;;;1.45;;
48651;SDS011;34442;52.362;-1.302;2023-10-31T02:52:09;2.50;;;1.50;;
48651;SDS011;34442;52.362;-1.302;2023-10-31T02:54:35;2.55;;;1.35;;
48651;SDS011;34442;52.362;-1.302;2023-10-31T02:57:01;3.28;;;1.50;;
48651;SDS011;34442;52.362;-1.302;2023-10-31T02:59:26;2.85;;;1.52;;
48651;SDS011;34442;52.362;-1.302;2023-10-31T03:01:52;3.80;;;1.67;;
48651;SDS011;34442;52.362;-1.302;2023-10-31T03:04:17;3.55;;;1.50;;
48651;SDS011;34442;52.362;-1.302;2023-10-31T03:06:43;3.85;;;2.00;;
48651;SDS011;34442;52.362;-1.302;2023-10-31T03:09:08;3.35;;;1.75;;
48651;SDS011;34442;52.362;-1.302;2023-10-31T03:11:33;3.08;;;1.50;;
48651;SDS011;34442;52.362;-1.302;2023-10-31T03:13:59;3.75;;;1.73;;
48651;SDS011;34442;52.362;-1.302;2023-10-31T03:16:24;3.67;;;1.77;;
48651;SDS011;34442;52.362;-1.302;2023-10-31T03:18:50;3.70;;;1.60;;
48651;SDS011;34442;52.362;-1.302;2023-10-31T03:21:16;4.57;;;1.70;;
48651;SDS011;34442;52.362;-1.302;2023-10-31T03:23:42;3.42;;;1.67;;
48651;SDS011;34442;52.362;-1.302;2023-10-31T03:26:08;2.70;;;1.48;;
48651;SDS011;34442;52.362;-1.302;2023-10-31T03:28:34;3.58;;;1.67;;
48651;SDS011;34442;52.362;-1.302;2023-10-31T03:30:59;3.63;;;1.85;;
48651;SDS011;34442;52.362;-1.302;2023-10-31T03:33:24;3.92;;;1.50;;
48651;SDS011;34442;52.362;-1.302;2023-10-31T03:35:50;5.28;;;2.38;;
48651;SDS011;34442;52.362;-1.302;2023-10-31T03:38:15;5.90;;;1.98;;
48651;SDS011;34442;52.362;-1.302;2023-10-31T03:40:40;3.90;;;1.80;;
48651;SDS011;34442;52.362;-1.302;2023-10-31T03:43:06;2.95;;;1.50;;
48651;SDS011;34442;52.362;-1.302;2023-10-31T03:45:32;3.13;;;1.40;;
48651;SDS011;34442;52.362;-1.302;2023-10-31T03:47:57;2.42;;;1.40;;
48651;SDS011;34442;52.362;-1.302;2023-10-31T03:50:23;3.10;;;1.55;;
48651;SDS011;34442;52.362;-1.302;2023-10-31T03:52:48;3.60;;;1.52;;
48651;SDS011;34442;52.362;-1.302;2023-10-31T03:55:13;2.58;;;1.48;;
48651;SDS011;34442;52.362;-1.302;2023-10-31T03:57:39;6.00;;;1.92;;
48651;SDS011;34442;52.362;-1.302;2023-10-31T04:00:04;3.72;;;1.50;;
48651;SDS011;34442;52.362;-1.302;2023-10-31T04:02:32;4.03;;;1.48;;
48651;SDS011;34442;52.362;-1.302;2023-10-31T04:04:57;1.92;;;1.20;;
48651;SDS011;34442;52.362;-1.302;2023-10-31T04:07:23;2.55;;;1.50;;
48651;SDS011;34442;52.362;-1.302;2023-10-31T04:09:48;4.40;;;1.83;;
48651;SDS011;34442;52.362;-1.302;2023-10-31T04:12:14;2.75;;;1.42;;
48651;SDS011;34442;52.362;-1.302;2023-10-31T04:14:39;2.90;;;1.30;;
48651;SDS011;34442;52.362;-1.302;2023-10-31T04:17:04;2.97;;;1.30;;
48651;SDS011;34442;52.362;-1.302;2023-10-31T04:19:30;2.42;;;1.30;;
48651;SDS011;34442;52.362;-1.302;2023-10-31T04:21:55;2.92;;;1.50;;
48651;SDS011;34442;52.362;-1.302;2023-10-31T04:24:20;3.30;;;1.58;;
48651;SDS011;34442;52.362;-1.302;2023-10-31T04:26:46;3.25;;;1.27;;
48651;SDS011;34442;52.362;-1.302;2023-10-31T04:29:11;4.80;;;1.65;;
48651;SDS011;34442;52.362;-1.302;2023-10-31T04:31:36;4.13;;;1.85;;
48651;SDS011;34442;52.362;-1.302;2023-10-31T04:34:02;2.63;;;1.40;;
48651;SDS011;34442;52.362;-1.302;2023-10-31T04:36:27;1.70;;;1.10;;
48651;SDS011;34442;52.362;-1.302;2023-10-31T04:38:53;3.10;;;1.55;;
48651;SDS011;34442;52.362;-1.302;2023-10-31T04:41:19;4.43;;;1.42;;
48651;SDS011;34442;52.362;-1.302;2023-10-31T04:43:44;1.45;;;1.10;;
48651;SDS011;34442;52.362;-1.302;2023-10-31T04:46:10;2.95;;;1.38;;
48651;SDS011;34442;52.362;-1.302;2023-10-31T04:48:36;4.07;;;1.40;;
48651;SDS011;34442;52.362;-1.302;2023-10-31T04:51:01;2.88;;;1.42;;
48651;SDS011;34442;52.362;-1.302;2023-10-31T04:53:27;4.72;;;1.92;;
48651;SDS011;34442;52.362;-1.302;2023-10-31T04:55:52;3.67;;;1.83;;
48651;SDS011;34442;52.362;-1.302;2023-10-31T04:58:17;5.32;;;2.05;;
48651;SDS011;34442;52.362;-1.302;2023-10-31T05:00:43;4.32;;;2.03;;
48651;SDS011;34442;52.362;-1.302;2023-10-31T05:03:09;5.60;;;2.30;;
48651;SDS011;34442;52.362;-1.302;2023-10-31T05:05:34;3.13;;;1.80;;
48651;SDS011;34442;52.362;-1.302;2023-10-31T05:07:59;7.07;;;2.85;;
48651;SDS011;34442;52.362;-1.302;2023-10-31T05:10:25;5.20;;;2.55;;
48651;SDS011;34442;52.362;-1.302;2023-10-31T05:12:50;5.13;;;1.92;;
48651;SDS011;34442;52.362;-1.302;2023-10-31T05:15:16;5.18;;;2.78;;
48651;SDS011;34442;52.362;-1.302;2023-10-31T05:17:41;5.32;;;2.92;;
48651;SDS011;34442;52.362;-1.302;2023-10-31T05:20:07;4.80;;;2.72;;
48651;SDS011;34442;52.362;-1.302;2023-10-31T05:22:34;5.07;;;2.50;;
48651;SDS011;34442;52.362;-1.302;2023-10-31T05:25:00;3.60;;;1.90;;
48651;SDS011;34442;52.362;-1.302;2023-10-31T05:27:25;4.80;;;1.90;;
48651;SDS011;34442;52.362;-1.302;2023-10-31T05:29:51;3.38;;;1.60;;
48651;SDS011;34442;52.362;-1.302;2023-10-31T05:32:16;4.55;;;1.95;;
48651;SDS011;34442;52.362;-1.302;2023-10-31T05:34:41;4.85;;;2.53;;
48651;SDS011;34442;52.362;-1.302;2023-10-31T05:37:07;5.60;;;1.90;;
48651;SDS011;34442;52.362;-1.302;2023-10-31T05:39:32;5.22;;;2.17;;
48651;SDS011;34442;52.362;-1.302;2023-10-31T05:41:58;3.85;;;2.00;;
48651;SDS011;34442;52.362;-1.302;2023-10-31T05:44:23;4.60;;;2.40;;
48651;SDS011;34442;52.362;-1.302;2023-10-31T05:46:49;3.20;;;1.90;;
48651;SDS011;34442;52.362;-1.302;2023-10-31T05:49:14;4.28;;;2.08;;
48651;SDS011;34442;52.362;-1.302;2023-10-31T05:51:39;3.40;;;1.50;;
48651;SDS011;34442;52.362;-1.302;2023-10-31T05:54:06;3.45;;;1.58;;
48651;SDS011;34442;52.362;-1.302;2023-10-31T05:56:32;3.35;;;1.92;;
48651;SDS011;34442;52.362;-1.302;2023-10-31T05:59:01;7.60;;;4.13;;
48651;SDS011;34442;52.362;-1.302;2023-10-31T06:01:26;5.80;;;2.95;;
48651;SDS011;34442;52.362;-1.302;2023-10-31T06:03:52;6.22;;;3.38;;
48651;SDS011;34442;52.362;-1.302;2023-10-31T06:06:17;4.75;;;2.65;;
48651;SDS011;34442;52.362;-1.302;2023-10-31T06:08:42;5.20;;;2.70;;
48651;SDS011;34442;52.362;-1.302;2023-10-31T06:11:08;4.88;;;2.40;;
48651;SDS011;34442;52.362;-1.302;2023-10-31T06:13:34;5.90;;;2.83;;
48651;SDS011;34442;52.362;-1.302;2023-10-31T06:16:00;5.97;;;3.50;;
48651;SDS011;34442;52.362;-1.302;2023-10-31T06:18:26;5.80;;;2.47;;
48651;SDS011;34442;52.362;-1.302;2023-10-31T06:20:55;5.35;;;2.33;;
48651;SDS011;34442;52.362;-1.302;2023-10-31T06:23:20;6.55;;;3.22;;
48651;SDS011;34442;52.362;-1.302;2023-10-31T06:25:46;4.53;;;2.40;;
48651;SDS011;34442;52.362;-1.302;2023-10-31T06:28:11;7.13;;;4.20;;
48651;SDS011;34442;52.362;-1.302;2023-10-31T06:30:37;6.57;;;3.30;;
48651;SDS011;34442;52.362;-1.302;2023-10-31T06:33:02;5.63;;;2.60;;
48651;SDS011;34442;52.362;-1.302;2023-10-31T06:35:27;5.82;;;2.72;;
48651;SDS011;34442;52.362;-1.302;2023-10-31T06:37:54;4.50;;;2.35;;
48651;SDS011;34442;52.362;-1.302;2023-10-31T06:40:21;5.95;;;2.50;;
48651;SDS011;34442;52.362;-1.302;2023-10-31T06:42:47;4.85;;;2.20;;
48651;SDS011;34442;52.362;-1.302;2023-10-31T06:45:13;5.22;;;3.13;;
48651;SDS011;34442;52.362;-1.302;2023-10-31T06:47:38;5.93;;;3.53;;
48651;SDS011;34442;52.362;-1.302;2023-10-31T06:50:03;6.25;;;3.25;;
48651;SDS011;34442;52.362;-1.302;2023-10-31T06:52:29;5.47;;;2.88;;
48651;SDS011;34442;52.362;-1.302;2023-10-31T06:54:55;5.03;;;2.60;;
48651;SDS011;34442;52.362;-1.302;2023-10-31T06:57:20;5.32;;;2.20;;
48651;SDS011;34442;52.362;-1.302;2023-10-31T06:59:45;4.55;;;2.50;;
48651;SDS011;34442;52.362;-1.302;2023-10-31T07:02:11;4.55;;;2.40;;
48651;SDS011;34442;52.362;-1.302;2023-10-31T07:04:37;4.40;;;1.92;;
48651;SDS011;34442;52.362;-1.302;2023-10-31T07:07:02;5.20;;;2.40;;
48651;SDS011;34442;52.362;-1.302;2023-10-31T07:09:28;5.45;;;2.85;;
48651;SDS011;34442;52.362;-1.302;2023-10-31T07:11:53;4.90;;;2.53;;
48651;SDS011;34442;52.362;-1.302;2023-10-31T07:14:19;4.63;;;2.38;;
48651;SDS011;34442;52.362;-1.302;2023-10-31T07:16:44;5.55;;;2.65;;
48651;SDS011;34442;52.362;-1.302;2023-10-31T07:19:10;5.00;;;2.53;;
48651;SDS011;34442;52.362;-1.302;2023-10-31T07:21:36;5.25;;;2.50;;
48651;SDS011;34442;52.362;-1.302;2023-10-31T07:24:02;4.82;;;2.30;;
48651;SDS011;34442;52.362;-1.302;2023-10-31T07:26:27;4.63;;;2.53;;
48651;SDS011;34442;52.362;-1.302;2023-10-31T07:28:53;4.40;;;2.05;;
48651;SDS011;34442;52.362;-1.302;2023-10-31T07:31:18;4.70;;;2.70;;
48651;SDS011;34442;52.362;-1.302;2023-10-31T07:33:47;5.72;;;2.63;;
48651;SDS011;34442;52.362;-1.302;2023-10-31T07:36:12;3.85;;;2.25;;
48651;SDS011;34442;52.362;-1.302;2023-10-31T07:38:38;4.88;;;2.33;;
48651;SDS011;34442;52.362;-1.302;2023-10-31T07:41:03;4.32;;;2.53;;
48651;SDS011;34442;52.362;-1.302;2023-10-31T07:43:29;5.00;;;2.35;;
48651;SDS011;34442;52.362;-1.302;2023-10-31T07:45:54;5.72;;;2.70;;
48651;SDS011;34442;52.362;-1.302;2023-10-31T07:48:19;5.03;;;2.25;;
48651;SDS011;34442;52.362;-1.302;2023-10-31T07:50:45;5.18;;;2.30;;
48651;SDS011;34442;52.362;-1.302;2023-10-31T07:53:10;4.93;;;2.40;;
48651;SDS011;34442;52.362;-1.302;2023-10-31T07:55:36;4.53;;;2.25;;
48651;SDS011;34442;52.362;-1.302;2023-10-31T07:58:01;3.83;;;2.00;;
48651;SDS011;34442;52.362;-1.302;2023-10-31T08:00:27;4.47;;;2.20;;
48651;SDS011;34442;52.362;-1.302;2023-10-31T08:02:52;3.90;;;1.90;;
48651;SDS011;34442;52.362;-1.302;2023-10-31T08:05:17;5.55;;;2.30;;
48651;SDS011;34442;52.362;-1.302;2023-10-31T08:07:43;3.67;;;1.80;;
48651;SDS011;34442;52.362;-1.302;2023-10-31T08:10:09;4.35;;;2.33;;
48651;SDS011;34442;52.362;-1.302;2023-10-31T08:12:35;5.43;;;2.50;;
48651;SDS011;34442;52.362;-1.302;2023-10-31T08:15:01;4.53;;;2.38;;
48651;SDS011;34442;52.362;-1.302;2023-10-31T08:17:26;4.75;;;2.42;;
48651;SDS011;34442;52.362;-1.302;2023-10-31T08:19:52;4.55;;;1.92;;
48651;SDS011;34442;52.362;-1.302;2023-10-31T08:22:17;4.43;;;2.15;;
48651;SDS011;34442;52.362;-1.302;2023-10-31T08:24:42;4.55;;;2.63;;
48651;SDS011;34442;52.362;-1.302;2023-10-31T08:27:08;4.82;;;2.53;;
48651;SDS011;34442;52.362;-1.302;2023-10-31T08:29:33;6.90;;;3.38;;
48651;SDS011;34442;52.362;-1.302;2023-10-31T08:31:58;5.15;;;2.70;;
48651;SDS011;34442;52.362;-1.302;2023-10-31T08:34:24;5.60;;;2.47;;
48651;SDS011;34442;52.362;-1.302;2023-10-31T08:36:49;4.55;;;2.35;;
48651;SDS011;34442;52.362;-1.302;2023-10-31T08:39:15;4.47;;;2.28;;
48651;SDS011;34442;52.362;-1.302;2023-10-31T08:41:56;4.65;;;2.40;;
48651;SDS011;34442;52.362;-1.302;2023-10-31T08:44:22;5.43;;;2.17;;
48651;SDS011;34442;52.362;-1.302;2023-10-31T08:46:51;4.57;;;2.15;;
48651;SDS011;34442;52.362;-1.302;2023-10-31T08:49:16;6.03;;;2.30;;
48651;SDS011;34442;52.362;-1.302;2023-10-31T08:51:43;4.28;;;2.35;;
48651;SDS011;34442;52.362;-1.302;2023-10-31T08:54:09;4.85;;;2.55;;
48651;SDS011;34442;52.362;-1.302;2023-10-31T08:56:34;4.32;;;2.25;;
48651;SDS011;34442;52.362;-1.302;2023-10-31T08:59:00;4.07;;;1.85;;
48651;SDS011;34442;52.362;-1.302;2023-10-31T09:01:26;4.93;;;2.25;;
48651;SDS011;34442;52.362;-1.302;2023-10-31T09:03:52;5.50;;;2.50;;
48651;SDS011;34442;52.362;-1.302;2023-10-31T09:06:17;4.32;;;2.33;;
48651;SDS011;34442;52.362;-1.302;2023-10-31T09:08:43;4.88;;;2.20;;
48651;SDS011;34442;52.362;-1.302;2023-10-31T09:11:08;5.65;;;2.20;;
48651;SDS011;34442;52.362;-1.302;2023-10-31T09:13:33;3.88;;;2.00;;
48651;SDS011;34442;52.362;-1.302;2023-10-31T09:15:59;4.25;;;1.92;;
48651;SDS011;34442;52.362;-1.302;2023-10-31T09:18:25;4.65;;;2.20;;
48651;SDS011;34442;52.362;-1.302;2023-10-31T09:20:51;3.72;;;2.20;;
48651;SDS011;34442;52.362;-1.302;2023-10-31T09:23:16;6.15;;;3.10;;
48651;SDS011;34442;52.362;-1.302;2023-10-31T09:25:45;8.82;;;4.40;;
48651;SDS011;34442;52.362;-1.302;2023-10-31T09:28:11;16.02;;;6.57;;
48651;SDS011;34442;52.362;-1.302;2023-10-31T09:30:36;7.28;;;3.50;;
48651;SDS011;34442;52.362;-1.302;2023-10-31T09:33:01;6.38;;;2.83;;
48651;SDS011;34442;52.362;-1.302;2023-10-31T09:35:27;6.03;;;2.90;;
48651;SDS011;34442;52.362;-1.302;2023-10-31T09:37:52;5.80;;;2.83;;
48651;SDS011;34442;52.362;-1.302;2023-10-31T09:40:18;6.38;;;3.50;;
48651;SDS011;34442;52.362;-1.302;2023-10-31T09:42:44;6.47;;;3.03;;
48651;SDS011;34442;52.362;-1.302;2023-10-31T09:45:11;6.80;;;3.00;;
48651;SDS011;34442;52.362;-1.302;2023-10-31T09:47:36;7.05;;;3.33;;
48651;SDS011;34442;52.362;-1.302;2023-10-31T09:50:02;7.72;;;3.83;;
48651;SDS011;34442;52.362;-1.302;2023-10-31T09:52:29;7.07;;;3.30;;
48651;SDS011;34442;52.362;-1.302;2023-10-31T09:54:54;5.55;;;2.90;;
48651;SDS011;34442;52.362;-1.302;2023-10-31T09:57:21;4.82;;;2.45;;
48651;SDS011;34442;52.362;-1.302;2023-10-31T09:59:46;9.13;;;3.30;;
48651;SDS011;34442;52.362;-1.302;2023-10-31T10:02:12;6.13;;;2.83;;
48651;SDS011;34442;52.362;-1.302;2023-10-31T10:04:37;6.00;;;2.65;;
48651;SDS011;34442;52.362;-1.302;2023-10-31T10:07:03;7.13;;;3.50;;
48651;SDS011;34442;52.362;-1.302;2023-10-31T10:09:30;10.48;;;3.70;;
48651;SDS011;34442;52.362;-1.302;2023-10-31T10:11:58;5.43;;;2.80;;
48651;SDS011;34442;52.362;-1.302;2023-10-31T10:14:25;9.05;;;4.10;;
48651;SDS011;34442;52.362;-1.302;2023-10-31T10:16:56;7.57;;;3.42;;
48651;SDS011;34442;52.362;-1.302;2023-10-31T10:19:22;7.30;;;3.15;;
48651;SDS011;34442;52.362;-1.302;2023-10-31T10:21:52;6.22;;;2.83;;
48651;SDS011;34442;52.362;-1.302;2023-10-31T10:24:20;4.68;;;2.10;;
48651;SDS011;34442;52.362;-1.302;2023-10-31T10:26:46;5.30;;;2.70;;
48651;SDS011;34442;52.362;-1.302;2023-10-31T10:29:12;7.53;;;3.63;;
48651;SDS011;34442;52.362;-1.302;2023-10-31T10:31:38;7.43;;;3.05;;
48651;SDS011;34442;52.362;-1.302;2023-10-31T10:34:04;4.85;;;2.83;;
48651;SDS011;34442;52.362;-1.302;2023-10-31T10:36:31;5.88;;;3.22;;
48651;SDS011;34442;52.362;-1.302;2023-10-31T10:38:57;5.30;;;2.60;;
48651;SDS011;34442;52.362;-1.302;2023-10-31T10:41:25;6.03;;;2.90;;
48651;SDS011;34442;52.362;-1.302;2023-10-31T10:44:03;4.90;;;2.20;;
48651;SDS011;34442;52.362;-1.302;2023-10-31T10:46:34;4.30;;;2.10;;
48651;SDS011;34442;52.362;-1.302;2023-10-31T10:49:04;6.88;;;2.85;;
48651;SDS011;34442;52.362;-1.302;2023-10-31T10:54:15;4.30;;;2.23;;
48651;SDS011;34442;52.362;-1.302;2023-10-31T10:56:55;3.90;;;1.60;;
48651;SDS011;34442;52.362;-1.302;2023-10-31T10:59:41;4.55;;;2.00;;
48651;SDS011;34442;52.362;-1.302;2023-10-31T11:02:08;4.38;;;1.80;;
48651;SDS011;34442;52.362;-1.302;2023-10-31T11:04:36;4.20;;;1.55;;
48651;SDS011;34442;52.362;-1.302;2023-10-31T11:07:02;2.45;;;1.30;;
48651;SDS011;34442;52.362;-1.302;2023-10-31T11:09:28;4.57;;;1.88;;
48651;SDS011;34442;52.362;-1.302;2023-10-31T11:11:56;3.85;;;1.60;;
48651;SDS011;34442;52.362;-1.302;2023-10-31T11:14:22;4.40;;;1.90;;
48651;SDS011;34442;52.362;-1.302;2023-10-31T11:16:50;4.60;;;1.80;;
48651;SDS011;34442;52.362;-1.302;2023-10-31T11:19:18;3.38;;;1.77;;
48651;SDS011;34442;52.362;-1.302;2023-10-31T11:22:00;4.28;;;1.60;;
48651;SDS011;34442;52.362;-1.302;2023-10-31T11:24:33;2.58;;;1.35;;
48651;SDS011;34442;52.362;-1.302;2023-10-31T11:27:03;3.55;;;1.55;;
48651;SDS011;34442;52.362;-1.302;2023-10-31T11:29:30;3.17;;;1.40;;
48651;SDS011;34442;52.362;-1.302;2023-10-31T11:31:56;4.35;;;1.58;;
48651;SDS011;34442;52.362;-1.302;2023-10-31T11:34:23;3.50;;;1.50;;
48651;SDS011;34442;52.362;-1.302;2023-10-31T11:36:56;2.60;;;1.40;;
48651;SDS011;34442;52.362;-1.302;2023-10-31T11:42:48;2.83;;;1.50;;
48651;SDS011;34442;52.362;-1.302;2023-10-31T11:48:13;2.75;;;1.38;;
48651;SDS011;34442;52.362;-1.302;2023-10-31T11:50:41;2.65;;;1.38;;
48651;SDS011;34442;52.362;-1.302;2023-10-31T11:53:08;3.05;;;1.30;;
48651;SDS011;34442;52.362;-1.302;2023-10-31T11:55:42;2.45;;;1.25;;
48651;SDS011;34442;52.362;-1.302;2023-10-31T11:58:18;2.88;;;1.23;;
48651;SDS011;34442;52.362;-1.302;2023-10-31T12:00:46;3.90;;;1.58;;
48651;SDS011;34442;52.362;-1.302;2023-10-31T12:03:15;2.22;;;1.35;;
48651;SDS011;34442;52.362;-1.302;2023-10-31T12:05:50;2.78;;;1.33;;
48651;SDS011;34442;52.362;-1.302;2023-10-31T12:11:14;2.33;;;1.17;;
48651;SDS011;34442;52.362;-1.302;2023-10-31T12:16:22;3.05;;;1.60;;
48651;SDS011;34442;52.362;-1.302;2023-10-31T12:18:53;4.30;;;1.33;;
48651;SDS011;34442;52.362;-1.302;2023-10-31T12:21:19;3.75;;;1.40;;
48651;SDS011;34442;52.362;-1.302;2023-10-31T12:23:45;2.05;;;1.08;;
48651;SDS011;34442;52.362;-1.302;2023-10-31T12:26:11;2.47;;;1.10;;
48651;SDS011;34442;52.362;-1.302;2023-10-31T12:28:36;1.95;;;1.20;;
48651;SDS011;34442;52.362;-1.302;2023-10-31T12:31:03;1.83;;;1.13;;
48651;SDS011;34442;52.362;-1.302;2023-10-31T12:33:28;1.95;;;1.25;;
48651;SDS011;34442;52.362;-1.302;2023-10-31T12:36:00;3.15;;;1.10;;
48651;SDS011;34442;52.362;-1.302;2023-10-31T12:38:26;1.65;;;1.02;;
48651;SDS011;34442;52.362;-1.302;2023-10-31T12:40:53;1.42;;;1.05;;
48651;SDS011;34442;52.362;-1.302;2023-10-31T12:43:19;2.50;;;1.27;;
48651;SDS011;34442;52.362;-1.302;2023-10-31T12:45:45;2.85;;;1.40;;
48651;SDS011;34442;52.362;-1.302;2023-10-31T12:48:10;2.53;;;1.40;;
48651;SDS011;34442;52.362;-1.302;2023-10-31T12:50:37;4.38;;;1.58;;
48651;SDS011;34442;52.362;-1.302;2023-10-31T12:53:05;2.88;;;1.40;;
48651;SDS011;34442;52.362;-1.302;2023-10-31T12:55:37;3.85;;;1.55;;
48651;SDS011;34442;52.362;-1.302;2023-10-31T12:58:04;3.13;;;1.60;;
48651;SDS011;34442;52.362;-1.302;2023-10-31T13:00:31;3.70;;;1.45;;
48651;SDS011;34442;52.362;-1.302;2023-10-31T13:05:27;3.10;;;1.40;;
48651;SDS011;34442;52.362;-1.302;2023-10-31T13:07:54;1.90;;;1.20;;
48651;SDS011;34442;52.362;-1.302;2023-10-31T13:10:21;1.70;;;1.20;;
48651;SDS011;34442;52.362;-1.302;2023-10-31T13:12:50;3.22;;;1.38;;
48651;SDS011;34442;52.362;-1.302;2023-10-31T13:15:17;2.42;;;1.20;;
48651;SDS011;34442;52.362;-1.302;2023-10-31T13:17:47;2.10;;;1.13;;
48651;SDS011;34442;52.362;-1.302;2023-10-31T13:20:15;1.48;;;0.90;;
48651;SDS011;34442;52.362;-1.302;2023-10-31T13:22:42;0.93;;;0.88;;
48651;SDS011;34442;52.362;-1.302;2023-10-31T13:25:08;1.98;;;1.10;;
48651;SDS011;34442;52.362;-1.302;2023-10-31T13:27:43;2.25;;;1.05;;
48651;SDS011;34442;52.362;-1.302;2023-10-31T13:30:10;1.85;;;0.98;;
48651;SDS011;34442;52.362;-1.302;2023-10-31T13:32:36;2.53;;;1.30;;
48651;SDS011;34442;52.362;-1.302;2023-10-31T13:35:02;1.85;;;1.20;;
48651;SDS011;34442;52.362;-1.302;2023-10-31T13:37:29;3.05;;;1.30;;
48651;SDS011;34442;52.362;-1.302;2023-10-31T13:39:55;2.10;;;1.10;;
48651;SDS011;34442;52.362;-1.302;2023-10-31T13:42:20;2.25;;;1.00;;
48651;SDS011;34442;52.362;-1.302;2023-10-31T13:44:46;2.35;;;1.10;;
48651;SDS011;34442;52.362;-1.302;2023-10-31T13:47:12;1.48;;;1.05;;
48651;SDS011;34442;52.362;-1.302;2023-10-31T13:49:37;1.55;;;1.10;;
48651;SDS011;34442;52.362;-1.302;2023-10-31T13:52:03;1.75;;;1.10;;
48651;SDS011;34442;52.362;-1.302;2023-10-31T13:54:30;2.50;;;1.15;;
48651;SDS011;34442;52.362;-1.302;2023-10-31T13:56:58;2.42;;;1.25;;
48651;SDS011;34442;52.362;-1.302;2023-10-31T13:59:24;2.25;;;1.10;;
48651;SDS011;34442;52.362;-1.302;2023-10-31T14:01:49;4.93;;;1.20;;
48651;SDS011;34442;52.362;-1.302;2023-10-31T14:04:15;2.58;;;1.10;;
48651;SDS011;34442;52.362;-1.302;2023-10-31T14:06:41;2.45;;;1.38;;
48651;SDS011;34442;52.362;-1.302;2023-10-31T14:09:07;3.80;;;1.20;;
48651;SDS011;34442;52.362;-1.302;2023-10-31T14:11:34;2.05;;;1.20;;
48651;SDS011;34442;52.362;-1.302;2023-10-31T14:14:00;2.10;;;1.10;;
48651;SDS011;34442;52.362;-1.302;2023-10-31T14:16:34;1.80;;;1.10;;
48651;SDS011;34442;52.362;-1.302;2023-10-31T14:19:00;2.13;;;1.10;;
48651;SDS011;34442;52.362;-1.302;2023-10-31T14:21:27;2.45;;;1.20;;
48651;SDS011;34442;52.362;-1.302;2023-10-31T14:23:53;2.17;;;1.20;;
48651;SDS011;34442;52.362;-1.302;2023-10-31T14:26:22;2.92;;;1.40;;
48651;SDS011;34442;52.362;-1.302;2023-10-31T14:28:48;1.58;;;1.10;;
48651;SDS011;34442;52.362;-1.302;2023-10-31T14:31:14;1.98;;;1.20;;
48651;SDS011;34442;52.362;-1.302;2023-10-31T14:33:40;2.00;;;1.00;;
48651;SDS011;34442;52.362;-1.302;2023-10-31T14:36:06;1.88;;;1.10;;
48651;SDS011;34442;52.362;-1.302;2023-10-31T14:38:33;2.30;;;1.35;;
48651;SDS011;34442;52.362;-1.302;2023-10-31T14:40:59;2.10;;;1.13;;
48651;SDS011;34442;52.362;-1.302;2023-10-31T14:43:24;1.33;;;1.00;;
48651;SDS011;34442;52.362;-1.302;2023-10-31T14:45:49;2.42;;;1.00;;